Terminal Aerodrome Forecast
Issued by NWS

Home | Current Version | Previous Version | Text Only | Print | Product List | Glossary On
Versions: 1 2 3 4 5 6 7 8 9 10 11 12 13 14 15 16
000
FTUS42 KILM 030100 AAB
TAFCRE
TAF AMD
KCRE 030124Z 0301/0324 21010KT P6SM FEW020 SCT050 SCT120
     FM030500 VRB04KT P6SM SCT015 SCT250
     FM031600 17008KT P6SM SCT035
     FM031900 20014KT P6SM VCSH SCT035=

USA.gov is the U.S. government's official web portal to all federal, state and local government web resources and services.